Time Latitude Longitude Accuracy (66% radius in meters) Altitude (meters) Speed (km/hour) Bearing (degrees) Battery (%) GPS flag
06:29:42 57.206746 60.114179 0 0 0 0 1 delete
06:29:41 57.206783 60.114217 0 0 0 0 1 delete
06:29:40 57.206814 60.114272 0 0 0 0 1 delete
06:29:39 57.206846 60.114336 0 0 0 0 1 delete
06:29:38 57.206873 60.114410 0 0 0 0 1 delete
06:29:37 57.206891 60.114491 0 0 0 0 1 delete
06:29:36 57.206901 60.114572 0 0 0 0 1 delete
06:29:35 57.206904 60.114646 0 0 0 0 1 delete
06:29:34 57.206892 60.114730 0 0 0 0 1 delete
06:29:33 57.206882 60.114820 0 0 0 0 1 delete
06:29:32 57.206883 60.114900 0 0 0 0 1 delete
06:29:31 57.206910 60.114953 0 0 0 0 1 delete
06:29:30 57.206946 60.114980 0 0 0 0 1 delete
06:29:29 57.206989 60.115010 0 0 0 0 1 delete
06:29:28 57.207033 60.115036 0 0 0 0 1 delete
06:29:27 57.207079 60.115059 0 0 0 0 1 delete
06:29:26 57.207120 60.115066 0 0 0 0 1 delete
06:29:25 57.207161 60.115066 0 0 0 0 1 delete
06:29:24 57.207201 60.115061 0 0 0 0 1 delete
06:29:23 57.207240 60.115056 0 0 0 0 1 delete
06:29:22 57.207274 60.115054 0 0 0 0 1 delete
06:29:21 57.207307 60.115055 0 0 0 0 1 delete
06:29:20 57.207341 60.115056 0 0 0 0 1 delete
06:29:19 57.207374 60.115061 0 0 0 0 1 delete
06:29:18 57.207403 60.115072 0 0 0 0 1 delete
06:29:17 57.207432 60.115095 0 0 0 0 1 delete
06:29:16 57.207460 60.115122 0 0 0 0 1 delete
06:29:15 57.207488 60.115151 0 0 0 0 1 delete
06:29:14 57.207515 60.115175 0 0 0 0 1 delete
06:29:13 57.207543 60.115198 0 0 0 0 1 delete
06:29:12 57.207567 60.115218 0 0 0 0 1 delete
06:29:11 57.207590 60.115233 0 0 0 0 1 delete
06:29:10 57.207609 60.115242 0 0 0 0 1 delete
06:29:09 57.207627 60.115249 0 0 0 0 1 delete
06:29:08 57.207643 60.115256 0 0 0 0 1 delete
06:29:07 57.207661 60.115254 0 0 0 0 1 delete
06:29:06 57.207676 60.115242 0 0 0 0 1 delete
06:29:05 57.207692 60.115215 0 0 0 0 1 delete
06:29:04 57.207706 60.115182 0 0 0 0 1 delete
06:29:03 57.207717 60.115150 0 0 0 0 1 delete
06:29:02 57.207725 60.115122 0 0 0 0 1 delete
06:29:01 57.207732 60.115095 0 0 0 0 1 delete
06:29:00 57.207737 60.115065 0 0 0 0 1 delete
06:28:59 57.207741 60.115035 0 0 0 0 1 delete
06:28:58 57.207748 60.115007 0 0 0 0 1 delete
06:28:57 57.207757 60.114980 0 0 0 0 1 delete
06:28:56 57.207765 60.114952 0 0 0 0 1 delete
06:28:55 57.207772 60.114921 0 0 0 0 1 delete
06:28:54 57.207778 60.114890 0 0 0 0 1 delete
06:28:53 57.207783 60.114858 0 0 0 0 1 delete